sensor_id;sensor_type;location;lat;lon;timestamp;P1;durP1;ratioP1;P2;durP2;ratioP2
39620;SDS011;25309;48.686;9.170;2022-10-16T03:01:23;2.50;;;1.53;;
39620;SDS011;25309;48.686;9.170;2022-10-16T03:03:50;2.70;;;1.50;;
39620;SDS011;25309;48.686;9.170;2022-10-16T03:06:17;2.47;;;1.33;;
39620;SDS011;25309;48.686;9.170;2022-10-16T03:08:44;1.77;;;1.53;;
39620;SDS011;25309;48.686;9.170;2022-10-16T03:11:11;1.67;;;1.47;;
39620;SDS011;25309;48.686;9.170;2022-10-16T03:13:38;2.17;;;1.30;;
39620;SDS011;25309;48.686;9.170;2022-10-16T03:16:05;1.70;;;1.30;;
39620;SDS011;25309;48.686;9.170;2022-10-16T03:18:33;3.27;;;1.10;;
39620;SDS011;25309;48.686;9.170;2022-10-16T03:21:00;1.57;;;1.30;;
39620;SDS011;25309;48.686;9.170;2022-10-16T03:23:27;2.57;;;1.20;;
39620;SDS011;25309;48.686;9.170;2022-10-16T03:25:56;1.53;;;0.97;;
39620;SDS011;25309;48.686;9.170;2022-10-16T03:28:22;3.80;;;1.10;;
39620;SDS011;25309;48.686;9.170;2022-10-16T03:30:49;2.63;;;1.10;;
39620;SDS011;25309;48.686;9.170;2022-10-16T03:33:16;1.40;;;1.00;;
39620;SDS011;25309;48.686;9.170;2022-10-16T03:35:50;3.57;;;1.30;;
39620;SDS011;25309;48.686;9.170;2022-10-16T03:38:18;1.50;;;1.23;;
39620;SDS011;25309;48.686;9.170;2022-10-16T03:40:45;1.47;;;0.90;;
39620;SDS011;25309;48.686;9.170;2022-10-16T03:43:12;2.90;;;1.23;;
39620;SDS011;25309;48.686;9.170;2022-10-16T03:45:40;2.20;;;1.00;;
39620;SDS011;25309;48.686;9.170;2022-10-16T03:48:07;1.17;;;0.90;;
39620;SDS011;25309;48.686;9.170;2022-10-16T03:50:34;2.50;;;1.10;;
39620;SDS011;25309;48.686;9.170;2022-10-16T03:53:02;1.20;;;1.10;;
39620;SDS011;25309;48.686;9.170;2022-10-16T03:55:29;4.07;;;1.40;;
39620;SDS011;25309;48.686;9.170;2022-10-16T03:57:56;2.00;;;1.13;;
39620;SDS011;25309;48.686;9.170;2022-10-16T04:00:23;1.40;;;1.07;;
39620;SDS011;25309;48.686;9.170;2022-10-16T04:02:50;2.20;;;1.00;;
39620;SDS011;25309;48.686;9.170;2022-10-16T04:05:17;1.37;;;1.10;;
39620;SDS011;25309;48.686;9.170;2022-10-16T04:07:44;3.23;;;1.00;;
39620;SDS011;25309;48.686;9.170;2022-10-16T04:10:12;2.80;;;1.00;;
39620;SDS011;25309;48.686;9.170;2022-10-16T04:12:39;1.63;;;1.00;;
39620;SDS011;25309;48.686;9.170;2022-10-16T04:15:07;1.70;;;1.00;;
39620;SDS011;25309;48.686;9.170;2022-10-16T04:17:34;3.13;;;1.43;;
39620;SDS011;25309;48.686;9.170;2022-10-16T04:20:01;1.90;;;1.13;;
39620;SDS011;25309;48.686;9.170;2022-10-16T04:22:29;2.93;;;1.00;;
39620;SDS011;25309;48.686;9.170;2022-10-16T04:24:56;2.47;;;1.20;;
39620;SDS011;25309;48.686;9.170;2022-10-16T04:27:24;2.50;;;1.10;;
39620;SDS011;25309;48.686;9.170;2022-10-16T04:29:52;2.33;;;1.17;;
39620;SDS011;25309;48.686;9.170;2022-10-16T04:32:18;1.70;;;1.20;;
39620;SDS011;25309;48.686;9.170;2022-10-16T04:34:45;1.53;;;1.00;;
39620;SDS011;25309;48.686;9.170;2022-10-16T04:37:12;1.83;;;1.10;;
39620;SDS011;25309;48.686;9.170;2022-10-16T04:39:39;1.63;;;1.20;;
39620;SDS011;25309;48.686;9.170;2022-10-16T04:42:06;1.50;;;1.07;;
39620;SDS011;25309;48.686;9.170;2022-10-16T04:44:35;1.20;;;0.90;;
39620;SDS011;25309;48.686;9.170;2022-10-16T04:47:02;3.30;;;1.00;;
39620;SDS011;25309;48.686;9.170;2022-10-16T04:49:29;2.03;;;1.10;;
39620;SDS011;25309;48.686;9.170;2022-10-16T04:51:55;2.77;;;1.13;;
39620;SDS011;25309;48.686;9.170;2022-10-16T04:54:23;2.03;;;1.20;;
39620;SDS011;25309;48.686;9.170;2022-10-16T04:56:50;3.30;;;1.00;;
39620;SDS011;25309;48.686;9.170;2022-10-16T04:59:18;1.10;;;1.00;;
39620;SDS011;25309;48.686;9.170;2022-10-16T05:01:47;2.50;;;1.20;;
39620;SDS011;25309;48.686;9.170;2022-10-16T05:04:15;1.40;;;1.20;;
39620;SDS011;25309;48.686;9.170;2022-10-16T05:06:42;2.50;;;1.57;;
39620;SDS011;25309;48.686;9.170;2022-10-16T05:09:09;2.87;;;1.13;;
39620;SDS011;25309;48.686;9.170;2022-10-16T05:11:36;3.43;;;1.30;;
39620;SDS011;25309;48.686;9.170;2022-10-16T05:14:03;1.43;;;1.00;;
39620;SDS011;25309;48.686;9.170;2022-10-16T05:16:30;3.23;;;1.20;;
39620;SDS011;25309;48.686;9.170;2022-10-16T05:18:58;3.87;;;1.30;;
39620;SDS011;25309;48.686;9.170;2022-10-16T05:21:45;1.67;;;1.10;;
39620;SDS011;25309;48.686;9.170;2022-10-16T05:24:12;3.00;;;1.60;;
39620;SDS011;25309;48.686;9.170;2022-10-16T05:26:40;2.30;;;1.20;;
39620;SDS011;25309;48.686;9.170;2022-10-16T05:29:07;2.43;;;1.47;;
39620;SDS011;25309;48.686;9.170;2022-10-16T05:31:35;1.53;;;1.17;;
39620;SDS011;25309;48.686;9.170;2022-10-16T05:34:03;2.53;;;1.33;;
39620;SDS011;25309;48.686;9.170;2022-10-16T05:36:30;4.10;;;1.40;;
39620;SDS011;25309;48.686;9.170;2022-10-16T05:38:57;1.97;;;1.50;;
39620;SDS011;25309;48.686;9.170;2022-10-16T05:41:24;2.73;;;1.80;;
39620;SDS011;25309;48.686;9.170;2022-10-16T05:43:52;4.27;;;1.90;;
39620;SDS011;25309;48.686;9.170;2022-10-16T05:46:19;3.20;;;1.90;;
39620;SDS011;25309;48.686;9.170;2022-10-16T05:48:46;2.27;;;1.40;;
39620;SDS011;25309;48.686;9.170;2022-10-16T05:51:14;2.10;;;1.10;;
39620;SDS011;25309;48.686;9.170;2022-10-16T05:53:41;1.43;;;1.17;;
39620;SDS011;25309;48.686;9.170;2022-10-16T05:56:10;3.77;;;1.53;;
39620;SDS011;25309;48.686;9.170;2022-10-16T05:58:39;2.00;;;1.30;;
39620;SDS011;25309;48.686;9.170;2022-10-16T06:01:07;2.17;;;1.33;;
39620;SDS011;25309;48.686;9.170;2022-10-16T06:03:36;2.23;;;1.20;;
39620;SDS011;25309;48.686;9.170;2022-10-16T06:06:09;1.20;;;1.10;;
39620;SDS011;25309;48.686;9.170;2022-10-16T06:08:39;2.73;;;1.30;;
39620;SDS011;25309;48.686;9.170;2022-10-16T06:11:08;4.70;;;1.63;;
39620;SDS011;25309;48.686;9.170;2022-10-16T06:13:35;3.10;;;1.50;;
39620;SDS011;25309;48.686;9.170;2022-10-16T06:16:03;4.57;;;1.73;;
39620;SDS011;25309;48.686;9.170;2022-10-16T06:18:30;3.70;;;1.60;;
39620;SDS011;25309;48.686;9.170;2022-10-16T06:20:57;1.83;;;1.40;;
39620;SDS011;25309;48.686;9.170;2022-10-16T06:23:25;3.27;;;1.57;;
39620;SDS011;25309;48.686;9.170;2022-10-16T06:25:55;2.43;;;1.60;;
39620;SDS011;25309;48.686;9.170;2022-10-16T06:28:30;3.10;;;1.67;;
39620;SDS011;25309;48.686;9.170;2022-10-16T06:30:58;4.17;;;1.80;;
39620;SDS011;25309;48.686;9.170;2022-10-16T06:33:32;3.77;;;1.90;;
39620;SDS011;25309;48.686;9.170;2022-10-16T06:36:00;3.17;;;1.47;;
39620;SDS011;25309;48.686;9.170;2022-10-16T06:38:27;3.87;;;1.70;;
39620;SDS011;25309;48.686;9.170;2022-10-16T06:40:55;2.77;;;1.60;;
39620;SDS011;25309;48.686;9.170;2022-10-16T06:43:23;3.00;;;1.30;;
39620;SDS011;25309;48.686;9.170;2022-10-16T06:45:51;2.47;;;1.30;;
39620;SDS011;25309;48.686;9.170;2022-10-16T06:48:18;3.30;;;1.37;;
39620;SDS011;25309;48.686;9.170;2022-10-16T06:50:54;3.77;;;1.37;;
39620;SDS011;25309;48.686;9.170;2022-10-16T06:53:22;1.80;;;1.20;;
39620;SDS011;25309;48.686;9.170;2022-10-16T06:55:49;2.50;;;1.30;;
39620;SDS011;25309;48.686;9.170;2022-10-16T06:58:17;3.10;;;1.67;;
39620;SDS011;25309;48.686;9.170;2022-10-16T07:00:45;2.50;;;1.27;;
39620;SDS011;25309;48.686;9.170;2022-10-16T07:03:12;4.40;;;1.50;;
39620;SDS011;25309;48.686;9.170;2022-10-16T07:05:39;1.67;;;1.30;;
39620;SDS011;25309;48.686;9.170;2022-10-16T07:08:07;2.13;;;1.40;;
39620;SDS011;25309;48.686;9.170;2022-10-16T07:10:35;2.13;;;1.40;;
39620;SDS011;25309;48.686;9.170;2022-10-16T07:13:02;2.87;;;1.50;;
39620;SDS011;25309;48.686;9.170;2022-10-16T07:15:30;2.60;;;1.20;;
39620;SDS011;25309;48.686;9.170;2022-10-16T07:17:57;3.00;;;1.50;;
39620;SDS011;25309;48.686;9.170;2022-10-16T07:20:24;3.97;;;1.37;;
39620;SDS011;25309;48.686;9.170;2022-10-16T07:22:52;2.30;;;1.70;;
39620;SDS011;25309;48.686;9.170;2022-10-16T07:25:18;3.43;;;2.17;;
39620;SDS011;25309;48.686;9.170;2022-10-16T07:27:45;2.67;;;1.90;;
39620;SDS011;25309;48.686;9.170;2022-10-16T07:30:13;2.60;;;1.50;;
39620;SDS011;25309;48.686;9.170;2022-10-16T07:32:41;1.60;;;1.30;;
39620;SDS011;25309;48.686;9.170;2022-10-16T07:35:08;1.83;;;1.50;;
39620;SDS011;25309;48.686;9.170;2022-10-16T07:37:35;2.23;;;1.63;;
39620;SDS011;25309;48.686;9.170;2022-10-16T07:40:02;2.73;;;1.63;;
39620;SDS011;25309;48.686;9.170;2022-10-16T07:42:29;1.67;;;1.37;;
39620;SDS011;25309;48.686;9.170;2022-10-16T07:44:56;5.63;;;1.50;;
39620;SDS011;25309;48.686;9.170;2022-10-16T07:47:24;3.20;;;1.30;;
39620;SDS011;25309;48.686;9.170;2022-10-16T07:49:52;2.40;;;1.40;;
39620;SDS011;25309;48.686;9.170;2022-10-16T07:52:20;2.37;;;1.30;;
39620;SDS011;25309;48.686;9.170;2022-10-16T07:54:47;3.27;;;1.37;;
39620;SDS011;25309;48.686;9.170;2022-10-16T07:57:14;3.43;;;1.10;;
39620;SDS011;25309;48.686;9.170;2022-10-16T07:59:45;1.90;;;1.17;;
39620;SDS011;25309;48.686;9.170;2022-10-16T08:02:12;4.97;;;1.50;;
39620;SDS011;25309;48.686;9.170;2022-10-16T08:04:39;2.03;;;1.13;;
39620;SDS011;25309;48.686;9.170;2022-10-16T08:07:08;2.77;;;1.40;;
39620;SDS011;25309;48.686;9.170;2022-10-16T08:09:35;2.27;;;1.37;;
39620;SDS011;25309;48.686;9.170;2022-10-16T08:12:02;2.00;;;1.23;;
39620;SDS011;25309;48.686;9.170;2022-10-16T08:14:30;4.57;;;1.63;;
39620;SDS011;25309;48.686;9.170;2022-10-16T08:16:57;3.97;;;1.40;;
39620;SDS011;25309;48.686;9.170;2022-10-16T08:19:24;2.40;;;1.30;;
39620;SDS011;25309;48.686;9.170;2022-10-16T08:21:51;2.40;;;1.20;;
39620;SDS011;25309;48.686;9.170;2022-10-16T08:24:19;1.87;;;1.20;;
39620;SDS011;25309;48.686;9.170;2022-10-16T08:26:46;2.83;;;1.40;;
39620;SDS011;25309;48.686;9.170;2022-10-16T08:29:13;1.20;;;1.10;;
39620;SDS011;25309;48.686;9.170;2022-10-16T08:31:40;3.80;;;1.20;;
39620;SDS011;25309;48.686;9.170;2022-10-16T08:34:07;3.60;;;1.40;;
39620;SDS011;25309;48.686;9.170;2022-10-16T08:36:34;2.20;;;1.30;;
39620;SDS011;25309;48.686;9.170;2022-10-16T08:39:01;2.47;;;1.80;;
39620;SDS011;25309;48.686;9.170;2022-10-16T08:41:39;2.07;;;1.37;;
39620;SDS011;25309;48.686;9.170;2022-10-16T08:44:30;3.17;;;1.90;;
39620;SDS011;25309;48.686;9.170;2022-10-16T08:47:13;3.07;;;2.10;;
39620;SDS011;25309;48.686;9.170;2022-10-16T08:49:50;2.83;;;1.60;;
39620;SDS011;25309;48.686;9.170;2022-10-16T08:52:23;3.27;;;1.30;;
39620;SDS011;25309;48.686;9.170;2022-10-16T08:54:55;1.47;;;1.30;;
39620;SDS011;25309;48.686;9.170;2022-10-16T08:57:24;1.93;;;1.30;;
39620;SDS011;25309;48.686;9.170;2022-10-16T08:59:53;3.80;;;1.60;;
39620;SDS011;25309;48.686;9.170;2022-10-16T09:02:28;3.37;;;1.67;;
39620;SDS011;25309;48.686;9.170;2022-10-16T09:05:17;2.60;;;1.53;;
39620;SDS011;25309;48.686;9.170;2022-10-16T09:08:02;1.60;;;1.33;;
39620;SDS011;25309;48.686;9.170;2022-10-16T09:10:41;3.33;;;1.20;;
39620;SDS011;25309;48.686;9.170;2022-10-16T09:13:19;2.73;;;1.30;;
39620;SDS011;25309;48.686;9.170;2022-10-16T09:15:53;2.93;;;1.50;;
39620;SDS011;25309;48.686;9.170;2022-10-16T09:18:27;3.00;;;1.30;;
39620;SDS011;25309;48.686;9.170;2022-10-16T09:21:01;1.50;;;1.20;;
39620;SDS011;25309;48.686;9.170;2022-10-16T09:23:36;1.33;;;1.20;;
39620;SDS011;25309;48.686;9.170;2022-10-16T09:26:04;2.30;;;1.30;;
39620;SDS011;25309;48.686;9.170;2022-10-16T09:28:37;1.97;;;1.40;;
39620;SDS011;25309;48.686;9.170;2022-10-16T09:31:04;4.40;;;1.40;;
39620;SDS011;25309;48.686;9.170;2022-10-16T09:33:33;2.80;;;1.20;;
39620;SDS011;25309;48.686;9.170;2022-10-16T09:36:03;2.87;;;1.13;;
39620;SDS011;25309;48.686;9.170;2022-10-16T09:38:33;4.73;;;1.27;;
39620;SDS011;25309;48.686;9.170;2022-10-16T09:41:02;3.20;;;1.10;;
39620;SDS011;25309;48.686;9.170;2022-10-16T09:43:41;2.33;;;1.23;;
39620;SDS011;25309;48.686;9.170;2022-10-16T09:46:21;1.30;;;0.97;;
39620;SDS011;25309;48.686;9.170;2022-10-16T09:48:51;1.57;;;1.10;;
39620;SDS011;25309;48.686;9.170;2022-10-16T09:51:22;1.00;;;0.90;;
39620;SDS011;25309;48.686;9.170;2022-10-16T09:53:54;1.50;;;0.93;;
39620;SDS011;25309;48.686;9.170;2022-10-16T09:56:23;2.43;;;1.10;;
39620;SDS011;25309;48.686;9.170;2022-10-16T09:58:53;1.50;;;1.20;;
39620;SDS011;25309;48.686;9.170;2022-10-16T10:01:21;1.40;;;1.00;;
39620;SDS011;25309;48.686;9.170;2022-10-16T10:03:55;2.63;;;1.00;;
39620;SDS011;25309;48.686;9.170;2022-10-16T10:06:28;3.73;;;1.20;;
39620;SDS011;25309;48.686;9.170;2022-10-16T10:08:58;1.90;;;1.10;;
39620;SDS011;25309;48.686;9.170;2022-10-16T10:11:42;1.97;;;1.13;;
39620;SDS011;25309;48.686;9.170;2022-10-16T10:14:25;1.10;;;1.03;;
39620;SDS011;25309;48.686;9.170;2022-10-16T10:19:39;3.33;;;1.20;;
39620;SDS011;25309;48.686;9.170;2022-10-16T10:22:18;2.57;;;1.03;;
39620;SDS011;25309;48.686;9.170;2022-10-16T10:24:57;2.23;;;1.17;;
39620;SDS011;25309;48.686;9.170;2022-10-16T10:28:02;2.10;;;0.90;;
39620;SDS011;25309;48.686;9.170;2022-10-16T10:30:47;2.87;;;1.30;;
39620;SDS011;25309;48.686;9.170;2022-10-16T10:33:21;3.07;;;1.13;;
39620;SDS011;25309;48.686;9.170;2022-10-16T10:35:56;1.10;;;1.00;;
39620;SDS011;25309;48.686;9.170;2022-10-16T10:38:31;2.77;;;1.00;;
39620;SDS011;25309;48.686;9.170;2022-10-16T10:41:09;1.33;;;1.00;;
39620;SDS011;25309;48.686;9.170;2022-10-16T10:44:00;2.00;;;1.23;;
39620;SDS011;25309;48.686;9.170;2022-10-16T10:46:36;1.23;;;1.10;;
39620;SDS011;25309;48.686;9.170;2022-10-16T10:49:20;2.77;;;1.10;;
39620;SDS011;25309;48.686;9.170;2022-10-16T10:51:58;3.73;;;1.00;;
39620;SDS011;25309;48.686;9.170;2022-10-16T10:54:41;1.47;;;1.00;;
39620;SDS011;25309;48.686;9.170;2022-10-16T10:57:18;2.80;;;1.20;;
39620;SDS011;25309;48.686;9.170;2022-10-16T10:59:57;3.87;;;1.03;;
39620;SDS011;25309;48.686;9.170;2022-10-16T11:02:34;4.97;;;1.30;;
39620;SDS011;25309;48.686;9.170;2022-10-16T11:05:19;1.90;;;1.33;;
39620;SDS011;25309;48.686;9.170;2022-10-16T11:07:59;1.97;;;1.10;;
39620;SDS011;25309;48.686;9.170;2022-10-16T11:10:29;1.47;;;1.10;;
39620;SDS011;25309;48.686;9.170;2022-10-16T11:13:15;1.67;;;1.03;;
39620;SDS011;25309;48.686;9.170;2022-10-16T11:15:48;2.43;;;1.20;;
39620;SDS011;25309;48.686;9.170;2022-10-16T11:18:21;1.60;;;1.10;;
39620;SDS011;25309;48.686;9.170;2022-10-16T11:20:53;1.40;;;1.10;;
39620;SDS011;25309;48.686;9.170;2022-10-16T11:23:25;1.10;;;1.00;;
39620;SDS011;25309;48.686;9.170;2022-10-16T11:25:57;1.67;;;1.07;;
39620;SDS011;25309;48.686;9.170;2022-10-16T11:28:29;1.27;;;1.10;;
39620;SDS011;25309;48.686;9.170;2022-10-16T11:31:02;1.73;;;1.23;;
39620;SDS011;25309;48.686;9.170;2022-10-16T11:33:36;1.10;;;1.00;;
39620;SDS011;25309;48.686;9.170;2022-10-16T11:36:08;2.63;;;1.10;;
39620;SDS011;25309;48.686;9.170;2022-10-16T11:38:42;2.77;;;1.40;;
39620;SDS011;25309;48.686;9.170;2022-10-16T11:41:18;1.90;;;1.20;;
39620;SDS011;25309;48.686;9.170;2022-10-16T11:43:52;1.13;;;1.00;;
39620;SDS011;25309;48.686;9.170;2022-10-16T11:46:28;1.93;;;1.20;;
39620;SDS011;25309;48.686;9.170;2022-10-16T11:49:02;1.50;;;0.90;;
39620;SDS011;25309;48.686;9.170;2022-10-16T11:51:36;1.93;;;1.20;;
39620;SDS011;25309;48.686;9.170;2022-10-16T11:54:08;2.53;;;1.30;;
39620;SDS011;25309;48.686;9.170;2022-10-16T11:56:48;1.13;;;1.03;;
39620;SDS011;25309;48.686;9.170;2022-10-16T11:59:20;2.13;;;1.13;;
39620;SDS011;25309;48.686;9.170;2022-10-16T12:01:55;2.30;;;1.07;;
39620;SDS011;25309;48.686;9.170;2022-10-16T12:04:29;1.43;;;1.30;;
39620;SDS011;25309;48.686;9.170;2022-10-16T12:07:03;1.63;;;1.03;;
39620;SDS011;25309;48.686;9.170;2022-10-16T12:09:36;2.50;;;1.10;;
39620;SDS011;25309;48.686;9.170;2022-10-16T12:12:05;3.67;;;1.07;;
39620;SDS011;25309;48.686;9.170;2022-10-16T12:14:59;2.53;;;1.10;;
39620;SDS011;25309;48.686;9.170;2022-10-16T12:17:47;2.37;;;1.00;;
39620;SDS011;25309;48.686;9.170;2022-10-16T12:20:20;1.50;;;1.17;;
39620;SDS011;25309;48.686;9.170;2022-10-16T12:22:51;3.50;;;1.40;;
39620;SDS011;25309;48.686;9.170;2022-10-16T12:25:22;1.57;;;1.23;;
39620;SDS011;25309;48.686;9.170;2022-10-16T12:27:55;1.20;;;1.10;;
39620;SDS011;25309;48.686;9.170;2022-10-16T12:30:28;3.87;;;1.37;;
39620;SDS011;25309;48.686;9.170;2022-10-16T12:33:01;1.47;;;1.30;;
39620;SDS011;25309;48.686;9.170;2022-10-16T12:35:33;1.93;;;1.10;;
39620;SDS011;25309;48.686;9.170;2022-10-16T12:38:08;3.00;;;1.27;;
39620;SDS011;25309;48.686;9.170;2022-10-16T12:40:43;1.40;;;1.30;;
39620;SDS011;25309;48.686;9.170;2022-10-16T12:43:24;2.73;;;1.30;;
39620;SDS011;25309;48.686;9.170;2022-10-16T12:45:59;1.90;;;1.30;;
39620;SDS011;25309;48.686;9.170;2022-10-16T12:48:30;4.23;;;1.40;;
39620;SDS011;25309;48.686;9.170;2022-10-16T12:51:23;1.37;;;1.27;;
39620;SDS011;25309;48.686;9.170;2022-10-16T12:54:01;2.70;;;1.30;;
39620;SDS011;25309;48.686;9.170;2022-10-16T12:56:33;1.77;;;1.20;;
39620;SDS011;25309;48.686;9.170;2022-10-16T12:59:09;2.30;;;1.30;;
39620;SDS011;25309;48.686;9.170;2022-10-16T13:01:54;2.27;;;1.30;;
39620;SDS011;25309;48.686;9.170;2022-10-16T13:04:33;1.57;;;1.27;;
39620;SDS011;25309;48.686;9.170;2022-10-16T13:07:32;2.27;;;1.43;;
39620;SDS011;25309;48.686;9.170;2022-10-16T13:10:15;2.40;;;1.40;;
39620;SDS011;25309;48.686;9.170;2022-10-16T13:12:55;1.63;;;1.20;;
39620;SDS011;25309;48.686;9.170;2022-10-16T13:15:47;2.30;;;1.23;;
39620;SDS011;25309;48.686;9.170;2022-10-16T13:18:30;2.80;;;1.30;;
39620;SDS011;25309;48.686;9.170;2022-10-16T13:21:08;2.60;;;1.27;;
39620;SDS011;25309;48.686;9.170;2022-10-16T13:23:49;1.50;;;1.10;;
39620;SDS011;25309;48.686;9.170;2022-10-16T13:26:23;2.93;;;1.33;;
39620;SDS011;25309;48.686;9.170;2022-10-16T13:28:58;3.23;;;1.23;;
39620;SDS011;25309;48.686;9.170;2022-10-16T13:31:26;2.17;;;1.33;;
39620;SDS011;25309;48.686;9.170;2022-10-16T13:33:56;2.20;;;1.30;;
39620;SDS011;25309;48.686;9.170;2022-10-16T13:36:26;1.93;;;1.27;;
39620;SDS011;25309;48.686;9.170;2022-10-16T13:39:10;2.10;;;1.20;;
39620;SDS011;25309;48.686;9.170;2022-10-16T13:41:38;1.87;;;1.10;;
39620;SDS011;25309;48.686;9.170;2022-10-16T13:44:08;2.83;;;1.20;;
39620;SDS011;25309;48.686;9.170;2022-10-16T13:46:40;2.20;;;1.27;;
39620;SDS011;25309;48.686;9.170;2022-10-16T13:49:12;2.07;;;1.17;;
39620;SDS011;25309;48.686;9.170;2022-10-16T13:51:40;1.50;;;1.20;;
39620;SDS011;25309;48.686;9.170;2022-10-16T13:54:10;1.93;;;1.50;;
39620;SDS011;25309;48.686;9.170;2022-10-16T13:56:38;2.57;;;1.30;;
39620;SDS011;25309;48.686;9.170;2022-10-16T13:59:20;2.13;;;1.20;;
39620;SDS011;25309;48.686;9.170;2022-10-16T14:01:50;3.10;;;1.33;;
39620;SDS011;25309;48.686;9.170;2022-10-16T14:04:20;3.07;;;1.30;;
39620;SDS011;25309;48.686;9.170;2022-10-16T14:06:49;2.37;;;1.47;;
39620;SDS011;25309;48.686;9.170;2022-10-16T14:09:21;1.60;;;1.33;;
39620;SDS011;25309;48.686;9.170;2022-10-16T14:11:50;1.87;;;1.43;;
39620;SDS011;25309;48.686;9.170;2022-10-16T14:14:19;3.63;;;1.50;;
39620;SDS011;25309;48.686;9.170;2022-10-16T14:16:46;2.10;;;1.27;;
39620;SDS011;25309;48.686;9.170;2022-10-16T14:19:15;2.90;;;1.33;;
39620;SDS011;25309;48.686;9.170;2022-10-16T14:21:46;1.37;;;1.10;;
39620;SDS011;25309;48.686;9.170;2022-10-16T14:24:13;3.10;;;1.40;;
39620;SDS011;25309;48.686;9.170;2022-10-16T14:26:53;2.90;;;1.20;;
39620;SDS011;25309;48.686;9.170;2022-10-16T14:29:24;2.10;;;1.30;;
39620;SDS011;25309;48.686;9.170;2022-10-16T14:31:56;1.67;;;1.33;;
39620;SDS011;25309;48.686;9.170;2022-10-16T14:34:25;2.87;;;1.50;;
39620;SDS011;25309;48.686;9.170;2022-10-16T14:36:54;2.63;;;1.63;;
39620;SDS011;25309;48.686;9.170;2022-10-16T14:39:22;2.60;;;1.50;;
39620;SDS011;25309;48.686;9.170;2022-10-16T14:41:54;3.90;;;1.57;;
39620;SDS011;25309;48.686;9.170;2022-10-16T14:44:24;2.37;;;1.40;;
39620;SDS011;25309;48.686;9.170;2022-10-16T14:46:54;1.80;;;1.20;;
39620;SDS011;25309;48.686;9.170;2022-10-16T14:49:22;1.83;;;1.30;;
39620;SDS011;25309;48.686;9.170;2022-10-16T14:51:50;1.50;;;1.20;;
39620;SDS011;25309;48.686;9.170;2022-10-16T14:54:18;1.67;;;1.40;;
39620;SDS011;25309;48.686;9.170;2022-10-16T14:56:47;2.07;;;1.30;;
39620;SDS011;25309;48.686;9.170;2022-10-16T14:59:17;1.73;;;1.20;;
39620;SDS011;25309;48.686;9.170;2022-10-16T15:01:48;2.93;;;1.50;;
39620;SDS011;25309;48.686;9.170;2022-10-16T15:04:15;1.70;;;1.40;;
39620;SDS011;25309;48.686;9.170;2022-10-16T15:06:42;2.37;;;1.50;;
39620;SDS011;25309;48.686;9.170;2022-10-16T15:09:09;2.03;;;1.20;;
39620;SDS011;25309;48.686;9.170;2022-10-16T15:11:36;1.63;;;1.17;;
39620;SDS011;25309;48.686;9.170;2022-10-16T15:14:03;2.13;;;1.50;;
39620;SDS011;25309;48.686;9.170;2022-10-16T15:16:32;2.13;;;1.33;;
39620;SDS011;25309;48.686;9.170;2022-10-16T15:18:59;2.87;;;1.50;;
39620;SDS011;25309;48.686;9.170;2022-10-16T15:21:27;2.73;;;1.50;;
39620;SDS011;25309;48.686;9.170;2022-10-16T15:23:55;2.60;;;1.50;;
39620;SDS011;25309;48.686;9.170;2022-10-16T15:26:23;2.00;;;1.30;;
39620;SDS011;25309;48.686;9.170;2022-10-16T15:28:50;3.20;;;1.40;;
39620;SDS011;25309;48.686;9.170;2022-10-16T15:31:17;2.40;;;1.50;;
39620;SDS011;25309;48.686;9.170;2022-10-16T15:33:46;2.83;;;1.43;;
39620;SDS011;25309;48.686;9.170;2022-10-16T15:36:26;1.93;;;1.50;;
39620;SDS011;25309;48.686;9.170;2022-10-16T15:38:54;2.77;;;1.87;;
39620;SDS011;25309;48.686;9.170;2022-10-16T15:41:21;2.03;;;1.70;;
39620;SDS011;25309;48.686;9.170;2022-10-16T15:43:48;4.83;;;1.77;;
39620;SDS011;25309;48.686;9.170;2022-10-16T15:46:17;3.67;;;2.20;;
39620;SDS011;25309;48.686;9.170;2022-10-16T15:48:47;1.50;;;1.40;;
39620;SDS011;25309;48.686;9.170;2022-10-16T15:51:14;2.73;;;1.70;;
39620;SDS011;25309;48.686;9.170;2022-10-16T15:53:42;3.30;;;1.87;;
39620;SDS011;25309;48.686;9.170;2022-10-16T15:56:09;2.73;;;1.70;;
39620;SDS011;25309;48.686;9.170;2022-10-16T15:58:37;3.50;;;1.50;;
39620;SDS011;25309;48.686;9.170;2022-10-16T16:01:04;2.07;;;1.50;;
39620;SDS011;25309;48.686;9.170;2022-10-16T16:03:32;3.57;;;1.50;;
39620;SDS011;25309;48.686;9.170;2022-10-16T16:06:04;2.43;;;1.50;;
39620;SDS011;25309;48.686;9.170;2022-10-16T16:08:32;5.23;;;1.63;;
39620;SDS011;25309;48.686;9.170;2022-10-16T16:11:00;3.20;;;1.60;;
39620;SDS011;25309;48.686;9.170;2022-10-16T16:13:28;2.80;;;1.50;;
39620;SDS011;25309;48.686;9.170;2022-10-16T16:15:55;2.30;;;1.53;;
39620;SDS011;25309;48.686;9.170;2022-10-16T16:18:23;2.27;;;1.20;;
39620;SDS011;25309;48.686;9.170;2022-10-16T16:20:50;2.30;;;1.50;;
39620;SDS011;25309;48.686;9.170;2022-10-16T16:23:18;2.60;;;1.40;;
39620;SDS011;25309;48.686;9.170;2022-10-16T16:25:53;2.97;;;1.60;;
39620;SDS011;25309;48.686;9.170;2022-10-16T16:28:29;3.07;;;1.70;;
39620;SDS011;25309;48.686;9.170;2022-10-16T16:30:56;2.07;;;1.70;;
39620;SDS011;25309;48.686;9.170;2022-10-16T16:33:23;3.20;;;1.57;;
39620;SDS011;25309;48.686;9.170;2022-10-16T16:35:50;2.10;;;1.57;;
39620;SDS011;25309;48.686;9.170;2022-10-16T16:38:23;2.83;;;1.70;;
39620;SDS011;25309;48.686;9.170;2022-10-16T16:40:50;3.73;;;2.33;;
39620;SDS011;25309;48.686;9.170;2022-10-16T16:43:22;4.20;;;2.10;;
39620;SDS011;25309;48.686;9.170;2022-10-16T16:45:50;4.37;;;1.97;;
39620;SDS011;25309;48.686;9.170;2022-10-16T16:48:17;5.40;;;2.03;;
39620;SDS011;25309;48.686;9.170;2022-10-16T16:50:44;4.13;;;2.10;;
39620;SDS011;25309;48.686;9.170;2022-10-16T16:53:11;6.57;;;2.50;;
39620;SDS011;25309;48.686;9.170;2022-10-16T16:55:40;3.83;;;2.27;;
39620;SDS011;25309;48.686;9.170;2022-10-16T16:58:07;2.63;;;1.93;;
39620;SDS011;25309;48.686;9.170;2022-10-16T17:00:34;5.67;;;2.57;;
39620;SDS011;25309;48.686;9.170;2022-10-16T17:03:01;6.40;;;2.33;;
39620;SDS011;25309;48.686;9.170;2022-10-16T17:05:28;3.47;;;2.53;;
39620;SDS011;25309;48.686;9.170;2022-10-16T17:07:55;4.03;;;2.20;;
39620;SDS011;25309;48.686;9.170;2022-10-16T17:10:22;4.13;;;2.17;;
39620;SDS011;25309;48.686;9.170;2022-10-16T17:12:50;2.33;;;2.10;;
39620;SDS011;25309;48.686;9.170;2022-10-16T17:15:17;3.90;;;2.40;;
39620;SDS011;25309;48.686;9.170;2022-10-16T17:17:44;4.30;;;2.20;;
39620;SDS011;25309;48.686;9.170;2022-10-16T17:20:11;4.37;;;2.00;;
39620;SDS011;25309;48.686;9.170;2022-10-16T17:22:38;3.00;;;2.10;;
39620;SDS011;25309;48.686;9.170;2022-10-16T17:25:05;3.33;;;2.30;;
39620;SDS011;25309;48.686;9.170;2022-10-16T17:27:33;2.93;;;2.37;;
39620;SDS011;25309;48.686;9.170;2022-10-16T17:30:04;3.93;;;2.50;;
39620;SDS011;25309;48.686;9.170;2022-10-16T17:32:31;5.27;;;2.97;;
39620;SDS011;25309;48.686;9.170;2022-10-16T17:34:58;4.87;;;2.87;;
39620;SDS011;25309;48.686;9.170;2022-10-16T17:37:25;5.30;;;2.63;;
39620;SDS011;25309;48.686;9.170;2022-10-16T17:39:52;3.83;;;2.40;;
39620;SDS011;25309;48.686;9.170;2022-10-16T17:42:19;5.27;;;2.83;;
39620;SDS011;25309;48.686;9.170;2022-10-16T17:44:46;4.87;;;3.23;;
39620;SDS011;25309;48.686;9.170;2022-10-16T17:47:14;6.83;;;3.50;;
39620;SDS011;25309;48.686;9.170;2022-10-16T17:49:41;4.27;;;3.30;;
39620;SDS011;25309;48.686;9.170;2022-10-16T17:52:08;5.97;;;3.73;;
39620;SDS011;25309;48.686;9.170;2022-10-16T17:54:36;3.87;;;3.00;;
39620;SDS011;25309;48.686;9.170;2022-10-16T17:57:05;3.40;;;2.90;;
39620;SDS011;25309;48.686;9.170;2022-10-16T17:59:32;4.97;;;3.10;;
39620;SDS011;25309;48.686;9.170;2022-10-16T18:01:58;4.43;;;2.97;;
39620;SDS011;25309;48.686;9.170;2022-10-16T18:04:27;5.70;;;3.30;;
39620;SDS011;25309;48.686;9.170;2022-10-16T18:06:54;5.50;;;3.80;;
39620;SDS011;25309;48.686;9.170;2022-10-16T18:09:21;22.40;;;15.53;;
39620;SDS011;25309;48.686;9.170;2022-10-16T18:11:48;36.90;;;29.50;;